createdAt,value
2019-04-23T00:02:30.073Z,9.87
2019-04-23T00:12:50.879Z,9.72
2019-04-23T00:17:48.145Z,9.55
2019-04-23T00:23:00.235Z,9.46
2019-04-23T00:28:06.692Z,9.37
2019-04-23T00:33:12.393Z,9.27
2019-04-23T00:38:18.363Z,9.20
2019-04-23T00:43:21.878Z,9.11
2019-04-23T00:53:32.742Z,8.90
2019-04-23T00:58:43.193Z,8.82
2019-04-23T01:03:48.511Z,8.74
2019-04-23T01:08:59.834Z,8.71
2019-04-23T01:14:03.922Z,8.69
2019-04-23T01:19:20.684Z,8.63
2019-04-23T01:24:23.657Z,8.55
2019-04-23T01:29:50.672Z,8.47
2019-04-23T01:35:09.720Z,8.35
2019-04-23T01:40:04.251Z,8.31
2019-04-23T01:45:13.311Z,8.30
2019-04-23T02:00:28.960Z,8.20
2019-04-23T02:05:39.699Z,8.12
2019-04-23T02:10:55.572Z,8.04
2019-04-23T02:16:03.014Z,8.00
2019-04-23T02:20:59.575Z,7.96
2019-04-23T02:26:07.366Z,7.90
2019-04-23T02:36:32.437Z,7.77
2019-04-23T02:46:40.880Z,7.52
2019-04-23T02:51:48.961Z,7.47
2019-04-23T03:02:11.986Z,7.27
2019-04-23T03:17:10.523Z,7.13
2019-04-23T03:22:32.717Z,7.14
2019-04-23T03:34:30.247Z,7.02
2019-04-23T03:43:06.480Z,6.95
2019-04-23T03:47:58.144Z,6.94
2019-04-23T03:53:10.894Z,6.99
2019-04-23T03:58:12.507Z,6.97
2019-04-23T04:13:30.878Z,7.14
2019-04-23T04:18:38.626Z,7.22
2019-04-23T04:23:43.070Z,7.29
2019-04-23T04:28:51.109Z,7.37
2019-04-23T04:49:15.064Z,7.77
2019-04-23T04:54:14.056Z,7.90
2019-04-23T04:59:22.676Z,8.02
2019-04-23T05:04:37.934Z,8.13
2019-04-23T05:09:48.288Z,8.25
2019-04-23T05:14:52.704Z,8.39
2019-04-23T05:19:51.106Z,8.51
2019-04-23T05:25:05.554Z,8.61
2019-04-23T05:30:02.843Z,8.73
2019-04-23T05:35:07.985Z,8.86
2019-04-23T05:40:25.462Z,9.03
2019-04-23T05:45:16.666Z,9.23
2019-04-23T05:50:35.791Z,9.47
2019-04-23T05:55:26.993Z,9.65
2019-04-23T06:05:49.829Z,9.98
2019-04-23T06:10:55.516Z,10.14
2019-04-23T06:15:58.213Z,10.26
2019-04-23T06:21:10.115Z,10.48
2019-04-23T06:36:25.586Z,10.90
2019-04-23T06:41:29.145Z,11.18
2019-04-23T06:46:48.087Z,11.40
2019-04-23T06:57:00.702Z,11.82
2019-04-23T07:01:59.383Z,11.97
2019-04-23T07:07:24.137Z,12.03
2019-04-23T07:12:05.321Z,12.15
2019-04-23T07:17:08.557Z,12.17
2019-04-23T07:27:26.283Z,12.44
2019-04-23T07:32:30.629Z,12.56
2019-04-23T07:37:41.634Z,12.74
2019-04-23T07:42:51.179Z,12.81
2019-04-23T07:53:19.685Z,13.14
2019-04-23T08:08:31.426Z,13.51
2019-04-23T08:29:22.113Z,14.17
2019-04-23T08:34:29.673Z,14.49
2019-04-23T08:44:46.262Z,14.78
2019-04-23T08:49:49.059Z,14.89
2019-04-23T09:00:05.661Z,15.54
2019-04-23T09:05:11.398Z,15.54
2019-04-23T09:10:19.708Z,15.89
2019-04-23T09:15:26.346Z,16.25
2019-04-23T09:20:29.349Z,16.51
2019-04-23T09:30:49.620Z,16.63
2019-04-23T09:35:52.777Z,17.04
2019-04-23T09:46:44.033Z,17.43
2019-04-23T09:51:47.659Z,17.69
2019-04-23T09:56:52.582Z,17.49
2019-04-23T10:01:52.890Z,17.53
2019-04-23T10:06:39.199Z,18.12
2019-04-23T10:11:44.831Z,18.38
2019-04-23T10:16:51.613Z,18.48
2019-04-23T10:21:57.407Z,18.81
2019-04-23T10:27:02.100Z,18.79
2019-04-23T10:32:09.446Z,19.02
2019-04-23T10:37:15.623Z,18.94
2019-04-23T10:42:21.876Z,19.18
2019-04-23T10:53:26.863Z,20.18
2019-04-23T10:58:24.905Z,19.92
2019-04-23T11:08:34.841Z,20.43
2019-04-23T11:13:44.919Z,20.79
2019-04-23T11:18:56.923Z,21.32
2019-04-23T11:24:04.801Z,21.18
2019-04-23T11:29:16.281Z,20.87
2019-04-23T11:38:08.425Z,20.48
2019-04-23T11:39:16.576Z,21.02
2019-04-23T11:44:26.422Z,22.10
2019-04-23T11:54:35.513Z,22.12
2019-04-23T11:59:44.339Z,22.96
2019-04-23T12:05:05.861Z,23.61
2019-04-23T12:20:27.158Z,24.07
2019-04-23T12:30:33.634Z,25.96
2019-04-23T12:35:33.671Z,27.61
2019-04-23T12:40:59.427Z,25.70
2019-04-23T12:45:51.906Z,24.02
2019-04-23T12:56:05.145Z,22.19
2019-04-23T13:01:14.113Z,22.79
2019-04-23T13:06:17.082Z,22.07
2019-04-23T13:11:33.146Z,21.15
2019-04-23T13:16:38.015Z,20.59
2019-04-23T13:26:35.361Z,19.50
2019-04-23T13:31:48.215Z,19.20
2019-04-23T13:37:00.293Z,18.98
2019-04-23T13:42:05.169Z,18.83
2019-04-23T13:47:19.990Z,18.83
2019-04-23T13:52:44.536Z,18.92
2019-04-23T14:07:44.077Z,18.91
2019-04-23T14:18:11.502Z,18.84
2019-04-23T14:28:17.583Z,18.10
2019-04-23T14:33:11.937Z,18.01
2019-04-23T14:38:22.330Z,17.75
2019-04-23T14:48:21.140Z,17.96
2019-04-23T14:53:46.374Z,18.23
2019-04-23T14:58:47.510Z,18.34
2019-04-23T15:08:57.364Z,18.21
2019-04-23T15:13:58.488Z,18.29
2019-04-23T15:19:28.530Z,18.61
2019-04-23T15:24:27.842Z,18.75
2019-04-23T15:29:20.126Z,18.69
2019-04-23T15:34:42.661Z,18.56
2019-04-23T15:39:56.141Z,18.42
2019-04-23T15:44:55.778Z,18.25
2019-04-23T16:00:17.891Z,17.88
2019-04-23T16:04:51.242Z,17.84
2019-04-23T16:15:25.732Z,17.74
2019-04-23T16:20:54.410Z,17.71
2019-04-23T16:25:55.597Z,17.59
2019-04-23T16:31:03.192Z,17.48
2019-04-23T16:46:18.127Z,16.99
2019-04-23T16:57:00.341Z,16.74
2019-04-23T17:01:39.635Z,16.51
2019-04-23T17:06:49.145Z,16.33
2019-04-23T17:16:50.943Z,16.17
2019-04-23T17:22:04.521Z,16.12
2019-04-23T17:32:10.326Z,15.87
2019-04-23T17:42:46.334Z,15.59
2019-04-23T17:47:58.989Z,15.59
2019-04-23T17:53:03.363Z,15.49
2019-04-23T17:58:10.413Z,15.44
2019-04-23T18:03:20.389Z,15.42
2019-04-23T18:08:21.286Z,15.31
2019-04-23T18:13:28.480Z,15.31
2019-04-23T18:18:38.242Z,15.26
2019-04-23T18:24:00.246Z,15.26
2019-04-23T18:29:19.631Z,15.22
2019-04-23T18:39:23.908Z,15.27
2019-04-23T18:44:34.286Z,15.33
2019-04-23T18:49:48.057Z,15.42
2019-04-23T18:54:44.964Z,15.41
2019-04-23T19:15:31.575Z,15.67
2019-04-23T19:20:47.943Z,15.67
2019-04-23T19:25:30.446Z,15.64
2019-04-23T19:30:55.015Z,15.56
2019-04-23T19:41:02.108Z,15.49
2019-04-23T19:51:17.154Z,15.43
2019-04-23T19:56:34.019Z,15.31
2019-04-23T20:01:33.932Z,15.31
2019-04-23T20:07:02.272Z,15.28
2019-04-23T20:11:52.969Z,15.24
2019-04-23T20:22:06.234Z,15.15
2019-04-23T20:27:11.851Z,15.06
2019-04-23T20:38:02.545Z,14.90
2019-04-23T20:42:37.120Z,14.78
2019-04-23T20:47:46.770Z,14.68
2019-04-23T20:52:46.958Z,14.53
2019-04-23T20:58:09.424Z,14.41
2019-04-23T21:08:38.878Z,14.11
2019-04-23T21:13:47.532Z,13.94
2019-04-23T21:23:50.678Z,13.70
2019-04-23T21:29:03.939Z,13.59
2019-04-23T21:34:12.816Z,13.48
2019-04-23T21:39:15.387Z,13.48
2019-04-23T21:44:32.699Z,13.44
2019-04-23T21:49:40.695Z,13.39
2019-04-23T21:54:39.094Z,13.35
2019-04-23T21:59:49.234Z,13.33
2019-04-23T22:05:01.175Z,13.28
2019-04-23T22:10:00.442Z,13.25
2019-04-23T22:14:57.843Z,13.20
2019-04-23T22:20:09.448Z,13.17
2019-04-23T22:25:11.262Z,13.13
2019-04-23T22:30:22.370Z,13.08
2019-04-23T22:35:30.161Z,13.03
2019-04-23T22:40:38.202Z,13.02
2019-04-23T22:45:52.051Z,13.02
2019-04-23T22:50:56.700Z,13.04
2019-04-23T22:56:05.371Z,13.03
2019-04-23T23:01:19.665Z,13.05
2019-04-23T23:06:18.645Z,13.06
2019-04-23T23:11:22.595Z,13.07
2019-04-23T23:16:28.515Z,13.10
2019-04-23T23:21:53.554Z,13.09
2019-04-23T23:26:53.295Z,13.05
2019-04-23T23:32:09.643Z,13.03
2019-04-23T23:37:02.252Z,12.99
2019-04-23T23:42:02.770Z,12.96
2019-04-23T23:47:14.681Z,12.93
2019-04-23T23:52:09.525Z,12.89
2019-04-23T23:57:23.381Z,12.84
